createdAt,value
2018-03-06T00:01:44.629Z,82.71
2018-03-06T00:04:11.077Z,83.41
2018-03-06T00:06:37.770Z,83.14
2018-03-06T00:09:04.250Z,82.72
2018-03-06T00:11:30.713Z,82.81
2018-03-06T00:13:57.174Z,83.10
2018-03-06T00:16:23.573Z,82.50
2018-03-06T00:18:49.988Z,82.99
2018-03-06T00:21:16.498Z,83.25
2018-03-06T00:23:42.901Z,82.82
2018-03-06T00:26:09.294Z,82.67
2018-03-06T00:28:35.743Z,82.13
2018-03-06T00:31:02.136Z,82.69
2018-03-06T00:33:28.513Z,82.82
2018-03-06T00:35:54.938Z,82.86
2018-03-06T00:38:21.328Z,82.70
2018-03-06T00:40:47.703Z,82.39
2018-03-06T00:43:14.107Z,83.14
2018-03-06T00:45:40.593Z,82.64
2018-03-06T00:48:06.965Z,82.40
2018-03-06T00:50:33.311Z,82.45
2018-03-06T00:52:59.698Z,82.66
2018-03-06T00:55:26.055Z,82.06
2018-03-06T00:57:52.430Z,82.26
2018-03-06T01:00:18.822Z,81.82
2018-03-06T01:02:45.225Z,81.21
2018-03-06T01:05:11.670Z,80.98
2018-03-06T01:07:38.033Z,81.56
2018-03-06T01:10:04.510Z,81.32
2018-03-06T01:12:31.060Z,81.89
2018-03-06T01:14:57.461Z,82.00
2018-03-06T01:17:23.893Z,81.83
2018-03-06T01:19:50.280Z,81.63
2018-03-06T01:22:16.658Z,81.96
2018-03-06T01:24:43.022Z,81.63
2018-03-06T01:27:09.425Z,81.42
2018-03-06T01:29:35.880Z,82.03
2018-03-06T01:32:02.333Z,81.84
2018-03-06T01:34:28.741Z,82.01
2018-03-06T01:36:55.141Z,82.17
2018-03-06T01:39:21.485Z,81.86
2018-03-06T01:41:47.897Z,81.46
2018-03-06T01:44:14.285Z,81.97
2018-03-06T01:46:40.666Z,82.12
2018-03-06T01:49:07.117Z,82.40
2018-03-06T01:51:45.774Z,82.42
2018-03-06T01:54:12.305Z,82.51
2018-03-06T01:56:38.698Z,82.10
2018-03-06T01:59:05.058Z,82.57
2018-03-06T02:01:31.514Z,82.72
2018-03-06T02:03:57.974Z,83.08
2018-03-06T02:06:24.402Z,83.09
2018-03-06T02:08:50.822Z,83.19
2018-03-06T02:11:17.225Z,83.04
2018-03-06T02:13:43.641Z,82.92
2018-03-06T02:16:10.091Z,82.96
2018-03-06T02:18:36.494Z,83.02
2018-03-06T02:21:02.890Z,83.02
2018-03-06T02:23:29.347Z,82.55
2018-03-06T02:25:55.809Z,82.36
2018-03-06T02:28:22.157Z,82.28
2018-03-06T02:30:48.646Z,82.31
2018-03-06T02:33:15.102Z,82.27
2018-03-06T02:35:41.478Z,82.22
2018-03-06T02:38:08.026Z,82.43
2018-03-06T02:40:34.427Z,82.54
2018-03-06T02:43:00.836Z,82.78
2018-03-06T02:45:27.335Z,83.07
2018-03-06T02:47:53.745Z,82.62
2018-03-06T02:50:20.133Z,82.41
2018-03-06T02:52:46.534Z,82.11
2018-03-06T02:55:12.922Z,82.49
2018-03-06T02:57:39.389Z,82.68
2018-03-06T03:00:05.877Z,82.70
2018-03-06T03:02:32.294Z,82.80
2018-03-06T03:04:58.642Z,82.80
2018-03-06T03:07:25.118Z,82.26
2018-03-06T03:09:51.501Z,81.57
2018-03-06T03:12:17.926Z,81.84
2018-03-06T03:14:44.367Z,82.12
2018-03-06T03:17:10.817Z,82.95
2018-03-06T03:19:37.240Z,82.93
2018-03-06T03:22:03.709Z,83.09
2018-03-06T03:24:30.206Z,83.12
2018-03-06T03:26:56.593Z,83.50
2018-03-06T03:29:23.017Z,83.50
2018-03-06T03:31:49.434Z,83.50
2018-03-06T03:34:15.817Z,83.51
2018-03-06T03:36:42.266Z,83.51
2018-03-06T03:39:08.672Z,83.93
2018-03-06T03:41:35.113Z,83.93
2018-03-06T03:44:01.582Z,83.64
2018-03-06T03:46:28.076Z,83.87
2018-03-06T03:48:54.497Z,84.15
2018-03-06T03:51:21.143Z,84.29
2018-03-06T03:53:47.519Z,83.85
2018-03-06T03:56:13.922Z,83.96
2018-03-06T03:58:40.378Z,84.58
2018-03-06T04:01:06.729Z,84.56
2018-03-06T04:03:33.109Z,84.34
2018-03-06T04:05:59.704Z,83.90
2018-03-06T04:08:26.110Z,83.69
2018-03-06T04:10:52.605Z,83.36
2018-03-06T04:13:19.101Z,83.35
2018-03-06T04:15:45.530Z,83.09
2018-03-06T04:18:11.960Z,82.95
2018-03-06T04:20:38.353Z,83.06
2018-03-06T04:23:04.778Z,83.23
2018-03-06T04:25:31.178Z,83.25
2018-03-06T04:27:57.757Z,83.30
2018-03-06T04:30:24.158Z,83.58
2018-03-06T04:32:50.619Z,83.29
2018-03-06T04:35:17.065Z,83.12
2018-03-06T04:37:43.438Z,83.17
2018-03-06T04:40:09.914Z,83.08
2018-03-06T04:42:36.293Z,83.20
2018-03-06T04:45:02.800Z,83.38
2018-03-06T04:47:29.205Z,83.39
2018-03-06T04:49:55.574Z,83.41
2018-03-06T04:52:21.981Z,83.49
2018-03-06T04:54:48.397Z,83.57
2018-03-06T04:57:14.801Z,83.99
2018-03-06T04:59:41.150Z,83.94
2018-03-06T05:02:07.531Z,84.02
2018-03-06T05:04:33.917Z,83.86
2018-03-06T05:07:00.420Z,83.72
2018-03-06T05:09:27.069Z,83.63
2018-03-06T05:11:53.497Z,83.42
2018-03-06T05:14:19.897Z,83.59
2018-03-06T05:16:46.323Z,83.50
2018-03-06T05:19:12.793Z,83.50
2018-03-06T05:21:39.206Z,83.49
2018-03-06T05:24:05.611Z,83.61
2018-03-06T05:26:32.041Z,83.68
2018-03-06T05:28:58.462Z,83.60
2018-03-06T05:31:24.977Z,83.53
2018-03-06T05:33:51.372Z,83.75
2018-03-06T05:36:17.809Z,83.74
2018-03-06T05:38:44.234Z,83.70
2018-03-06T05:41:10.578Z,83.72
2018-03-06T05:43:36.949Z,83.59
2018-03-06T05:46:03.393Z,83.51
2018-03-06T05:48:29.893Z,83.31
2018-03-06T05:50:56.434Z,83.16
2018-03-06T05:53:22.856Z,83.12
2018-03-06T05:55:49.293Z,83.31
2018-03-06T05:58:16.633Z,83.52
2018-03-06T06:00:43.057Z,83.56
2018-03-06T06:03:09.474Z,83.47
2018-03-06T06:05:35.897Z,83.55
2018-03-06T06:08:02.315Z,83.58
2018-03-06T06:10:28.754Z,83.36
2018-03-06T06:12:55.144Z,84.05
2018-03-06T06:15:21.558Z,83.96
2018-03-06T06:17:48.068Z,83.75
2018-03-06T06:20:14.646Z,83.64
2018-03-06T06:22:41.038Z,83.81
2018-03-06T06:25:07.405Z,83.87
2018-03-06T06:27:33.844Z,84.21
2018-03-06T06:30:00.342Z,83.98
2018-03-06T06:32:26.727Z,83.55
2018-03-06T06:34:53.125Z,83.36
2018-03-06T06:37:19.562Z,83.29
2018-03-06T06:39:45.933Z,83.47
2018-03-06T06:42:12.358Z,83.70
2018-03-06T06:44:38.779Z,83.66
2018-03-06T06:47:05.186Z,83.73
2018-03-06T06:49:31.662Z,83.88
2018-03-06T06:51:58.034Z,84.24
2018-03-06T06:54:24.420Z,84.47
2018-03-06T06:56:50.841Z,84.49
2018-03-06T06:59:17.177Z,84.22
2018-03-06T07:01:43.581Z,84.35
2018-03-06T07:04:09.941Z,84.42
2018-03-06T07:06:36.350Z,84.44
2018-03-06T07:09:02.862Z,84.33
2018-03-06T07:11:29.449Z,84.25
2018-03-06T07:13:55.852Z,84.29
2018-03-06T07:16:22.341Z,84.07
2018-03-06T07:18:48.817Z,84.61
2018-03-06T07:21:15.324Z,85.39
2018-03-06T07:23:41.826Z,86.06
2018-03-06T07:26:08.207Z,86.03
2018-03-06T07:28:34.654Z,86.03
2018-03-06T07:31:01.045Z,85.81
2018-03-06T07:33:27.446Z,85.74
2018-03-06T07:35:53.939Z,85.06
2018-03-06T07:38:20.346Z,84.59
2018-03-06T07:40:46.729Z,84.78
2018-03-06T07:43:13.176Z,84.57
2018-03-06T07:45:39.630Z,84.54
2018-03-06T07:48:06.169Z,84.20
2018-03-06T07:50:32.679Z,84.12
2018-03-06T07:52:59.089Z,84.34
2018-03-06T07:55:25.576Z,84.57
2018-03-06T07:57:51.945Z,83.67
2018-03-06T08:00:18.342Z,83.99
2018-03-06T08:02:44.899Z,83.84
2018-03-06T08:05:11.381Z,84.41
2018-03-06T08:07:37.789Z,84.20
2018-03-06T08:10:04.259Z,84.29
2018-03-06T08:12:30.766Z,84.20
2018-03-06T08:14:57.112Z,83.94
2018-03-06T08:17:23.547Z,83.85
2018-03-06T08:19:49.939Z,83.78
2018-03-06T08:22:16.322Z,83.67
2018-03-06T08:24:42.845Z,83.52
2018-03-06T08:27:09.212Z,83.97
2018-03-06T08:29:35.589Z,83.58
2018-03-06T08:32:02.165Z,83.78
2018-03-06T08:34:28.533Z,83.51
2018-03-06T08:36:54.942Z,83.69
2018-03-06T08:39:21.403Z,84.08
2018-03-06T08:41:47.833Z,83.47
2018-03-06T08:44:14.290Z,83.16
2018-03-06T08:46:40.745Z,83.66
2018-03-06T08:49:07.162Z,83.27
2018-03-06T08:51:33.547Z,83.36
2018-03-06T08:54:00.166Z,83.65
2018-03-06T08:56:26.583Z,83.53
2018-03-06T08:58:52.973Z,83.99
2018-03-06T09:01:19.494Z,83.86
2018-03-06T09:03:45.910Z,83.27
2018-03-06T09:06:12.295Z,83.42
2018-03-06T09:08:38.826Z,84.01
2018-03-06T09:11:05.237Z,83.67
2018-03-06T09:13:31.592Z,83.50
2018-03-06T09:15:58.034Z,83.09
2018-03-06T09:18:25.309Z,83.06
2018-03-06T09:20:51.658Z,83.59
2018-03-06T09:23:18.185Z,83.32
2018-03-06T09:25:44.588Z,83.15
2018-03-06T09:28:11.032Z,83.31
2018-03-06T09:30:37.411Z,83.56
2018-03-06T09:33:03.797Z,83.34
2018-03-06T09:35:30.254Z,82.98
2018-03-06T09:37:56.649Z,82.58
2018-03-06T09:40:23.042Z,82.11
2018-03-06T09:42:49.419Z,82.06
2018-03-06T09:45:15.801Z,81.61
2018-03-06T09:47:42.270Z,81.75
2018-03-06T09:50:08.631Z,81.42
2018-03-06T09:52:34.986Z,81.04
2018-03-06T09:55:01.446Z,81.31
2018-03-06T09:57:27.853Z,81.35
2018-03-06T09:59:54.247Z,81.52
2018-03-06T10:02:20.690Z,81.25
2018-03-06T10:04:47.025Z,81.72
2018-03-06T10:07:13.437Z,81.17
2018-03-06T10:09:39.989Z,80.69
2018-03-06T10:12:06.383Z,80.46
2018-03-06T10:14:32.751Z,80.28
2018-03-06T10:16:59.231Z,80.67
2018-03-06T10:19:25.598Z,80.31
2018-03-06T10:21:51.969Z,80.32
2018-03-06T10:24:18.437Z,79.91
2018-03-06T10:26:44.884Z,79.52
2018-03-06T10:29:11.269Z,79.34
2018-03-06T10:31:37.729Z,79.56
2018-03-06T10:34:04.078Z,79.09
2018-03-06T10:36:30.610Z,78.66
2018-03-06T10:38:57.041Z,78.88
2018-03-06T10:41:23.498Z,78.23
2018-03-06T10:43:49.855Z,78.09
2018-03-06T10:46:16.593Z,77.67
2018-03-06T10:48:43.409Z,78.22
2018-03-06T10:51:09.746Z,78.15
2018-03-06T10:53:36.177Z,77.66
2018-03-06T10:56:02.607Z,76.85
2018-03-06T10:58:29.125Z,76.55
2018-03-06T11:00:55.600Z,75.72
2018-03-06T11:03:22.135Z,76.37
2018-03-06T11:05:48.568Z,76.87
2018-03-06T11:08:15.202Z,76.40
2018-03-06T11:10:41.569Z,74.95
2018-03-06T11:13:07.970Z,75.88
2018-03-06T11:15:34.471Z,75.93
2018-03-06T11:18:00.923Z,75.85
2018-03-06T11:20:27.381Z,75.46
2018-03-06T11:22:53.858Z,74.30
2018-03-06T11:25:20.222Z,74.23
2018-03-06T11:27:46.673Z,73.98
2018-03-06T11:30:13.066Z,75.14
2018-03-06T11:32:39.679Z,75.08
2018-03-06T11:35:06.085Z,75.06
2018-03-06T11:37:32.493Z,74.68
2018-03-06T11:39:58.981Z,73.18
2018-03-06T11:42:26.236Z,73.45
2018-03-06T11:44:52.991Z,73.89
2018-03-06T11:47:19.402Z,72.71
2018-03-06T11:49:45.942Z,72.96
2018-03-06T11:52:12.498Z,74.10
2018-03-06T11:54:38.955Z,75.31
2018-03-06T11:57:05.356Z,74.95
2018-03-06T11:59:31.969Z,75.35
2018-03-06T12:01:58.418Z,75.64
2018-03-06T12:04:24.889Z,75.26
2018-03-06T12:06:51.281Z,75.36
2018-03-06T12:09:17.729Z,73.77
2018-03-06T12:11:44.219Z,73.71
2018-03-06T12:14:10.620Z,75.14
2018-03-06T12:16:37.000Z,74.25
2018-03-06T12:19:03.470Z,73.74
2018-03-06T12:21:29.907Z,73.43
2018-03-06T12:23:56.317Z,71.68
2018-03-06T12:26:22.749Z,71.74
2018-03-06T12:28:49.227Z,71.84
2018-03-06T12:31:15.693Z,73.20
2018-03-06T12:33:42.098Z,71.80
2018-03-06T12:36:08.546Z,71.54
2018-03-06T12:38:35.014Z,71.40
2018-03-06T12:41:01.354Z,71.58
2018-03-06T12:43:27.821Z,71.51
2018-03-06T12:45:54.297Z,73.87
2018-03-06T12:48:20.730Z,74.03
2018-03-06T12:50:47.129Z,71.23
2018-03-06T12:53:13.494Z,70.92
2018-03-06T12:55:39.850Z,73.31
2018-03-06T12:58:06.273Z,73.37
2018-03-06T13:00:32.879Z,71.97
2018-03-06T13:02:59.290Z,73.86
2018-03-06T13:05:25.747Z,72.21
2018-03-06T13:07:52.238Z,73.61
2018-03-06T13:10:18.587Z,73.30
2018-03-06T13:12:45.621Z,71.61
2018-03-06T13:15:12.022Z,70.93
2018-03-06T13:17:38.513Z,70.60
2018-03-06T13:20:04.894Z,71.56
2018-03-06T13:22:31.278Z,71.14
2018-03-06T13:24:57.795Z,71.31
2018-03-06T13:27:24.230Z,71.07
2018-03-06T13:29:50.645Z,73.77
2018-03-06T13:32:17.100Z,72.04
2018-03-06T13:34:43.481Z,72.22
2018-03-06T13:37:09.869Z,70.87
2018-03-06T13:39:36.306Z,71.07
2018-03-06T13:42:02.785Z,71.05
2018-03-06T13:44:29.134Z,71.84
2018-03-06T13:46:55.522Z,70.83
2018-03-06T13:49:22.010Z,71.26
2018-03-06T13:51:48.510Z,71.43
2018-03-06T13:54:14.885Z,71.62
2018-03-06T13:56:41.345Z,70.50
2018-03-06T13:59:07.787Z,71.37
2018-03-06T14:01:34.181Z,70.96
2018-03-06T14:04:00.557Z,72.46
2018-03-06T14:06:26.917Z,74.27
2018-03-06T14:08:53.293Z,72.72
2018-03-06T14:11:19.669Z,71.20
2018-03-06T14:13:46.083Z,71.71
2018-03-06T14:16:12.460Z,73.46
2018-03-06T14:18:38.850Z,72.62
2018-03-06T14:21:05.298Z,72.27
2018-03-06T14:23:31.663Z,72.07
2018-03-06T14:25:58.018Z,73.48
2018-03-06T14:28:24.433Z,73.17
2018-03-06T14:30:50.793Z,72.15
2018-03-06T14:33:17.297Z,71.85
2018-03-06T14:35:43.701Z,71.48
2018-03-06T14:38:10.107Z,72.01
2018-03-06T14:40:36.521Z,71.28
2018-03-06T14:43:02.918Z,73.29
2018-03-06T14:45:29.345Z,73.00
2018-03-06T14:47:55.915Z,71.94
2018-03-06T14:50:22.568Z,72.49
2018-03-06T14:52:49.060Z,73.78
2018-03-06T14:55:15.655Z,73.27
2018-03-06T14:57:42.041Z,74.77
2018-03-06T15:00:08.658Z,74.36
2018-03-06T15:02:35.258Z,72.30
2018-03-06T15:05:01.634Z,72.89
2018-03-06T15:07:28.093Z,72.93
2018-03-06T15:09:54.542Z,73.02
2018-03-06T15:12:20.910Z,71.85
2018-03-06T15:14:47.324Z,72.64
2018-03-06T15:17:13.709Z,72.24
2018-03-06T15:19:40.353Z,73.81
2018-03-06T15:22:06.701Z,73.55
2018-03-06T15:24:33.160Z,73.09
2018-03-06T15:26:59.694Z,74.37
2018-03-06T15:29:26.157Z,73.76
2018-03-06T15:31:52.517Z,74.96
2018-03-06T15:34:18.917Z,75.66
2018-03-06T15:36:45.277Z,76.41
2018-03-06T15:39:11.737Z,74.66
2018-03-06T15:41:38.183Z,74.98
2018-03-06T15:44:04.557Z,75.83
2018-03-06T15:46:31.030Z,76.37
2018-03-06T15:48:57.498Z,75.30
2018-03-06T15:51:23.958Z,74.27
2018-03-06T15:53:50.334Z,73.75
2018-03-06T15:56:16.790Z,73.95
2018-03-06T15:58:43.368Z,72.80
2018-03-06T16:01:09.767Z,73.10
2018-03-06T16:03:36.093Z,76.17
2018-03-06T16:06:02.537Z,75.58
2018-03-06T16:08:29.009Z,74.59
2018-03-06T16:10:55.369Z,74.96
2018-03-06T16:13:21.745Z,75.45
2018-03-06T16:15:48.154Z,75.05
2018-03-06T16:18:14.542Z,74.75
2018-03-06T16:20:40.920Z,76.14
2018-03-06T16:23:07.330Z,74.84
2018-03-06T16:25:33.741Z,75.85
2018-03-06T16:28:00.202Z,74.43
2018-03-06T16:30:26.671Z,75.42
2018-03-06T16:32:53.045Z,75.07
2018-03-06T16:35:19.454Z,73.80
2018-03-06T16:37:45.878Z,73.83
2018-03-06T16:40:12.284Z,73.69
2018-03-06T16:42:38.665Z,74.67
2018-03-06T16:45:05.058Z,75.95
2018-03-06T16:47:31.435Z,74.05
2018-03-06T16:49:57.816Z,73.40
2018-03-06T16:52:24.221Z,73.48
2018-03-06T16:54:50.645Z,75.41
2018-03-06T16:57:17.041Z,76.17
2018-03-06T16:59:43.429Z,74.97
2018-03-06T17:02:09.831Z,74.99
2018-03-06T17:04:36.211Z,76.67
2018-03-06T17:07:02.687Z,76.93
2018-03-06T17:09:29.290Z,74.78
2018-03-06T17:11:55.646Z,75.83
2018-03-06T17:14:22.045Z,75.46
2018-03-06T17:16:48.437Z,76.25
2018-03-06T17:19:14.813Z,75.08
2018-03-06T17:21:41.239Z,76.22
2018-03-06T17:24:07.678Z,77.07
2018-03-06T17:26:34.142Z,76.43
2018-03-06T17:29:00.788Z,76.26
2018-03-06T17:31:27.177Z,74.84
2018-03-06T17:33:53.619Z,77.09
2018-03-06T17:36:20.031Z,76.97
2018-03-06T17:38:46.357Z,77.53
2018-03-06T17:41:12.762Z,77.78
2018-03-06T17:43:39.140Z,76.89
2018-03-06T17:46:05.506Z,76.82
2018-03-06T17:48:32.041Z,77.47
2018-03-06T17:50:58.506Z,76.36
2018-03-06T17:53:24.888Z,76.71
2018-03-06T17:55:51.317Z,77.19
2018-03-06T17:58:17.693Z,77.49
2018-03-06T18:00:44.193Z,76.47
2018-03-06T18:03:10.935Z,77.23
2018-03-06T18:05:37.402Z,76.68
2018-03-06T18:08:03.887Z,75.59
2018-03-06T18:10:30.418Z,77.29
2018-03-06T18:12:56.786Z,76.63
2018-03-06T18:15:23.166Z,77.49
2018-03-06T18:17:49.557Z,77.16
2018-03-06T18:20:15.930Z,76.13
2018-03-06T18:22:42.537Z,77.68
2018-03-06T18:25:08.994Z,76.17
2018-03-06T18:27:36.198Z,75.79
2018-03-06T18:30:04.596Z,75.66
2018-03-06T18:32:30.989Z,75.47
2018-03-06T18:34:57.470Z,76.45
2018-03-06T18:37:24.025Z,77.84
2018-03-06T18:39:50.517Z,78.11
2018-03-06T18:42:16.897Z,78.13
2018-03-06T18:44:43.686Z,76.93
2018-03-06T18:47:10.254Z,76.21
2018-03-06T18:49:36.746Z,75.98
2018-03-06T18:52:03.194Z,75.48
2018-03-06T18:54:29.605Z,75.61
2018-03-06T18:56:55.986Z,76.56
2018-03-06T18:59:22.397Z,77.14
2018-03-06T19:15:12.421Z,78.14
2018-03-06T19:17:38.858Z,77.27
2018-03-06T19:20:05.301Z,76.14
2018-03-06T19:22:31.776Z,76.58
2018-03-06T19:24:58.172Z,76.68
2018-03-06T19:27:24.602Z,75.80
2018-03-06T19:29:51.045Z,76.69
2018-03-06T19:32:17.409Z,76.68
2018-03-06T19:34:43.833Z,75.94
2018-03-06T19:37:10.213Z,75.54
2018-03-06T19:39:36.789Z,75.49
2018-03-06T19:42:03.213Z,77.20
2018-03-06T19:44:29.732Z,77.30
2018-03-06T19:46:56.497Z,77.38
2018-03-06T19:49:22.992Z,76.24
2018-03-06T19:51:49.368Z,77.27
2018-03-06T19:54:15.758Z,78.38
2018-03-06T19:56:42.152Z,77.66
2018-03-06T19:59:08.601Z,78.40
2018-03-06T20:01:35.054Z,76.94
2018-03-06T20:04:01.490Z,78.12
2018-03-06T20:06:27.921Z,79.00
2018-03-06T20:08:54.418Z,79.25
2018-03-06T20:11:20.849Z,78.30
2018-03-06T20:13:47.244Z,78.15
2018-03-06T20:16:13.749Z,78.37
2018-03-06T20:18:40.236Z,78.72
2018-03-06T20:21:06.869Z,78.62
2018-03-06T20:23:33.361Z,78.76
2018-03-06T20:25:59.785Z,79.03
2018-03-06T20:28:26.280Z,78.75
2018-03-06T20:30:59.038Z,79.05
2018-03-06T20:33:25.469Z,79.16
2018-03-06T20:35:51.821Z,79.17
2018-03-06T20:38:24.238Z,79.33
2018-03-06T20:40:50.661Z,79.30
2018-03-06T20:43:17.076Z,79.08
2018-03-06T20:45:49.526Z,79.22
2018-03-06T20:48:15.932Z,79.02
2018-03-06T20:50:42.302Z,79.25
2018-03-06T20:53:14.889Z,79.02
2018-03-06T20:55:41.250Z,78.63
2018-03-06T20:58:07.682Z,78.84
2018-03-06T21:00:34.063Z,78.49
2018-03-06T21:03:00.504Z,78.40
2018-03-06T21:05:26.869Z,78.64
2018-03-06T21:07:53.353Z,78.35
2018-03-06T21:10:19.774Z,78.51
2018-03-06T21:12:46.181Z,78.87
2018-03-06T21:15:12.641Z,78.55
2018-03-06T21:17:39.072Z,78.36
2018-03-06T21:20:05.538Z,78.94
2018-03-06T21:22:31.991Z,78.96
2018-03-06T21:24:58.403Z,79.16
2018-03-06T21:27:24.858Z,79.07
2018-03-06T21:29:51.229Z,79.21
2018-03-06T21:32:17.622Z,79.27
2018-03-06T21:34:44.012Z,79.15
2018-03-06T21:37:10.386Z,78.95
2018-03-06T21:39:36.985Z,79.18
2018-03-06T21:42:03.494Z,79.17
2018-03-06T21:44:29.874Z,79.24
2018-03-06T21:46:56.297Z,79.50
2018-03-06T21:49:22.896Z,79.43
2018-03-06T21:51:49.389Z,79.41
2018-03-06T21:54:15.893Z,79.60
2018-03-06T21:56:42.266Z,79.75
2018-03-06T21:59:08.646Z,79.86
2018-03-06T22:01:34.989Z,79.86
2018-03-06T22:04:01.441Z,79.70
2018-03-06T22:06:27.839Z,79.49
2018-03-06T22:08:54.331Z,79.75
2018-03-06T22:11:20.855Z,79.93
2018-03-06T22:13:47.278Z,79.97
2018-03-06T22:16:13.665Z,79.72
2018-03-06T22:18:40.058Z,79.88
2018-03-06T22:21:06.441Z,79.84
2018-03-06T22:23:32.889Z,79.86
2018-03-06T22:25:59.369Z,79.92
2018-03-06T22:28:25.843Z,80.01
2018-03-06T22:30:52.210Z,79.96
2018-03-06T22:33:18.602Z,79.89
2018-03-06T22:35:44.962Z,79.81
2018-03-06T22:38:11.374Z,79.92
2018-03-06T22:40:37.724Z,79.75
2018-03-06T22:43:04.153Z,79.64
2018-03-06T22:45:30.621Z,79.99
2018-03-06T22:47:57.068Z,80.28
2018-03-06T22:50:23.478Z,80.40
2018-03-06T22:52:49.905Z,80.61
2018-03-06T22:55:16.293Z,80.73
2018-03-06T22:57:42.804Z,80.83
2018-03-06T23:00:09.237Z,80.85
2018-03-06T23:02:35.637Z,80.39
2018-03-06T23:05:02.103Z,80.09
2018-03-06T23:07:28.489Z,80.07
2018-03-06T23:09:54.897Z,80.28
2018-03-06T23:12:21.301Z,81.18
2018-03-06T23:14:47.679Z,81.47
2018-03-06T23:17:14.038Z,81.61
2018-03-06T23:19:40.466Z,81.57
2018-03-06T23:22:06.862Z,81.30
2018-03-06T23:24:33.294Z,80.85
2018-03-06T23:26:59.649Z,80.77
2018-03-06T23:29:26.009Z,80.89
2018-03-06T23:31:52.394Z,80.95
2018-03-06T23:34:18.753Z,80.86
2018-03-06T23:36:45.110Z,81.11
2018-03-06T23:39:11.477Z,81.10
2018-03-06T23:41:37.861Z,81.29
2018-03-06T23:44:04.226Z,81.27
2018-03-06T23:46:30.577Z,81.12
2018-03-06T23:48:56.929Z,81.19
2018-03-06T23:51:23.353Z,81.30
2018-03-06T23:53:49.721Z,81.85
2018-03-06T23:56:16.115Z,82.52
2018-03-06T23:58:42.466Z,82.69
